Del Mar, California
Current Conditions -  °F | °C
As of 4:55 PM on Thursday 27 Nov 2014 (Local Time) from KNKX Reporting Station
Few Clouds Few Clouds  
Wind Chill: 72°   Ceiling: Unl
Heat Index: 72°   Visibility: 10mi
Dew Point: 24°   Wind: 5mph
Humidity: 17%   Direction: 300°WNW
Pressure: 30.02"   Gusts: NA
Location:  32.96°N, 117.27°W
Report Text: KNKX 280055Z 30004KT 10SM FEW250 22/M04 A3002 RMK AO2 SLP161 T02221044
Loading
Personal Weather Stations






























Interactive Weather Map New forecast layout! Learn more

10-Day Weather Forecast

Advertisements
Track Severe Weather on mobile